Time;durP1;ratioP1;P1;durP2;ratioP2;P2;SDS_P1;SDS_P2;PMS_P1;PMS_P2;Temp;Humidity;BMP_temperature;BMP_pressure;BME280_temperature;BME280_humidity;BME280_pressure;Samples;Min_cycle;Max_cycle;Signal;HPM_P1;HPM_P2
2022/11/28 00:02:22;;;;;;;46.13;23.33;;;2.30;99.90;;;;;;8371533;28;20197;-79
2022/11/28 00:06:23;;;;;;;44.27;22.20;;;2.30;99.90;;;;;;8372922;28;20202;-79
2022/11/28 00:10:24;;;;;;;40.70;21.57;;;2.30;99.90;;;;;;8375089;28;20185;-80
2022/11/28 00:14:25;;;;;;;41.23;22.10;;;2.30;99.90;;;;;;8375514;28;20243;-79
2022/11/28 00:18:26;;;;;;;42.37;22.30;;;2.30;99.90;;;;;;8380202;28;20212;-79
2022/11/28 00:22:28;;;;;;;45.73;22.33;;;2.20;99.90;;;;;;8376184;28;20187;-79
2022/11/28 00:26:35;;;;;;;41.63;21.13;;;2.10;99.90;;;;;;8378672;28;20189;-79
2022/11/28 00:30:36;;;;;;;45.50;24.27;;;2.10;99.90;;;;;;8376318;28;20203;-79
2022/11/28 00:34:37;;;;;;;45.80;22.17;;;2.00;99.90;;;;;;8371361;28;20181;-79
2022/11/28 00:38:38;;;;;;;35.77;19.57;;;2.00;99.90;;;;;;8374475;28;20281;-79
2022/11/28 00:42:39;;;;;;;47.03;22.80;;;2.00;99.90;;;;;;8372512;28;20268;-80
2022/11/28 00:46:40;;;;;;;37.77;21.53;;;2.00;99.90;;;;;;8372159;28;20177;-78
2022/11/28 00:50:41;;;;;;;48.27;24.20;;;1.90;99.90;;;;;;8370635;28;20193;-79
2022/11/28 00:54:42;;;;;;;41.07;21.10;;;1.90;99.90;;;;;;8366373;28;20496;-79
2022/11/28 00:58:43;;;;;;;41.87;21.57;;;1.90;99.90;;;;;;8369701;28;20299;-78
2022/11/28 01:02:44;;;;;;;39.50;21.00;;;1.90;99.90;;;;;;8375791;28;20187;-78
2022/11/28 01:06:47;;;;;;;42.53;24.47;;;1.90;99.90;;;;;;8367184;28;20466;-78
2022/11/28 01:10:48;;;;;;;74.37;35.57;;;1.80;99.90;;;;;;8372374;28;20263;-79
2022/11/28 01:14:49;;;;;;;68.73;31.37;;;1.90;99.90;;;;;;8366899;28;20173;-78
2022/11/28 01:18:50;;;;;;;53.67;27.00;;;1.90;99.90;;;;;;8370859;28;20267;-80
2022/11/28 01:22:51;;;;;;;68.33;32.03;;;2.00;99.90;;;;;;8370735;28;20200;-79
2022/11/28 01:26:52;;;;;;;55.57;26.93;;;2.10;99.90;;;;;;8375778;28;20176;-80
2022/11/28 01:30:53;;;;;;;54.47;25.17;;;2.10;99.90;;;;;;8374034;28;20229;-79
2022/11/28 01:34:53;;;;;;;44.43;22.80;;;2.10;99.90;;;;;;8368888;28;20193;-79
2022/11/28 01:38:54;;;;;;;49.53;24.70;;;2.00;99.90;;;;;;8368185;28;20256;-79
2022/11/28 01:42:55;;;;;;;47.30;22.70;;;1.90;99.90;;;;;;8365810;28;20181;-80
2022/11/28 01:46:56;;;;;;;50.30;23.87;;;1.90;99.90;;;;;;8365501;28;20185;-80
2022/11/28 01:51:04;;;;;;;52.97;25.63;;;2.00;99.90;;;;;;8373889;28;20283;-79
2022/11/28 01:55:06;;;;;;;52.50;24.30;;;2.10;99.90;;;;;;8366040;28;20193;-79
2022/11/28 01:59:09;;;;;;;50.90;24.50;;;2.10;99.90;;;;;;8367727;28;20209;-80
2022/11/28 02:03:25;;;;;;;51.67;24.47;;;2.20;99.90;;;;;;8369616;28;20319;-80
2022/11/28 02:07:26;;;;;;;53.70;26.00;;;2.30;99.90;;;;;;8367376;28;20494;-79
2022/11/28 02:12:05;;;;;;;51.90;25.17;;;2.40;99.90;;;;;;8366343;28;20189;-79
2022/11/28 02:16:21;;;;;;;55.13;26.37;;;2.40;99.90;;;;;;8368940;28;20183;-79
2022/11/28 02:20:40;;;;;;;55.97;25.13;;;2.50;99.90;;;;;;8371103;28;20263;-79
2022/11/28 02:25:10;;;;;;;66.70;27.97;;;2.50;99.90;;;;;;8368694;28;20178;-79
2022/11/28 02:29:16;;;;;;;60.20;26.00;;;2.50;99.90;;;;;;8366562;28;20211;-79
2022/11/28 02:34:06;;;;;;;51.37;25.83;;;2.50;99.90;;;;;;8366005;28;20267;-79
2022/11/28 02:38:28;;;;;;;53.43;25.87;;;2.50;99.90;;;;;;8364926;28;20220;-79
2022/11/28 02:42:38;;;;;;;59.83;25.63;;;2.50;99.90;;;;;;8371786;28;20187;-79
2022/11/28 02:46:53;;;;;;;52.87;25.13;;;2.60;99.90;;;;;;8365694;28;20197;-79
2022/11/28 02:51:18;;;;;;;59.93;27.57;;;2.60;99.90;;;;;;8369985;28;20274;-79
2022/11/28 02:55:20;;;;;;;58.13;26.53;;;2.60;99.90;;;;;;8360589;28;20204;-79
2022/11/28 02:59:46;;;;;;;55.77;26.33;;;2.50;99.90;;;;;;8367951;28;20256;-79
2022/11/28 03:04:24;;;;;;;62.80;26.37;;;2.50;99.90;;;;;;8372071;28;20271;-80
2022/11/28 03:08:36;;;;;;;68.90;28.63;;;2.50;99.90;;;;;;8371903;28;20193;-80
2022/11/28 03:13:19;;;;;;;60.53;26.97;;;2.60;99.90;;;;;;8366608;28;20193;-79
2022/11/28 03:17:55;;;;;;;63.67;28.97;;;2.50;99.90;;;;;;8365131;28;20194;-79
2022/11/28 03:22:22;;;;;;;65.10;27.20;;;2.50;99.90;;;;;;8379262;28;20197;-79
2022/11/28 03:26:35;;;;;;;67.50;29.23;;;2.50;99.90;;;;;;8387887;28;20186;-78
2022/11/28 03:30:42;;;;;;;65.03;27.60;;;2.50;99.90;;;;;;8371639;28;20193;-80
2022/11/28 03:34:46;;;;;;;56.77;26.23;;;2.50;99.90;;;;;;8374641;28;20221;-79
2022/11/28 03:38:54;;;;;;;70.37;29.90;;;2.40;99.90;;;;;;8371148;28;20204;-80
2022/11/28 03:43:09;;;;;;;60.23;27.07;;;2.40;99.90;;;;;;8372525;28;20182;-78
2022/11/28 03:47:10;;;;;;;68.73;29.40;;;2.40;99.90;;;;;;8390757;28;20178;-80
2022/11/28 03:51:13;;;;;;;65.73;28.00;;;2.40;99.90;;;;;;8374449;28;20616;-78
2022/11/28 03:55:23;;;;;;;66.60;27.63;;;2.40;99.90;;;;;;8373970;28;20188;-78
2022/11/28 03:59:46;;;;;;;58.07;26.90;;;2.40;99.90;;;;;;8379713;28;20231;-79
2022/11/28 04:04:09;;;;;;;61.17;27.27;;;2.40;99.90;;;;;;8371803;28;20184;-79
2022/11/28 04:08:25;;;;;;;64.60;27.50;;;2.40;99.90;;;;;;8373859;28;20187;-79
2022/11/28 04:12:39;;;;;;;57.77;26.20;;;2.30;99.90;;;;;;8370440;28;20212;-80
2022/11/28 04:16:54;;;;;;;56.97;26.37;;;2.20;99.90;;;;;;8376890;28;20189;-79
2022/11/28 04:21:23;;;;;;;61.50;27.50;;;2.20;99.90;;;;;;8376650;28;20216;-80
2022/11/28 04:25:26;;;;;;;57.57;26.57;;;2.20;99.90;;;;;;8366944;28;20186;-79
2022/11/28 04:29:33;;;;;;;61.60;27.87;;;2.20;99.90;;;;;;8385851;28;20200;-80
2022/11/28 04:33:38;;;;;;;65.33;27.73;;;2.10;99.90;;;;;;8388412;28;20197;-79
2022/11/28 04:37:42;;;;;;;55.87;25.33;;;2.00;99.90;;;;;;8374790;28;20211;-79
2022/11/28 04:41:54;;;;;;;49.90;25.10;;;1.90;99.90;;;;;;8371024;28;21266;-80
2022/11/28 04:46:04;;;;;;;50.17;24.53;;;1.80;99.90;;;;;;8366673;28;20193;-79
2022/11/28 04:50:06;;;;;;;50.20;25.07;;;1.80;99.90;;;;;;8370689;28;20182;-79
2022/11/28 04:54:30;;;;;;;52.87;25.63;;;1.70;99.90;;;;;;8371878;28;20244;-80
2022/11/28 04:58:41;;;;;;;53.43;24.73;;;1.60;99.90;;;;;;8368596;28;20214;-80
2022/11/28 05:02:45;;;;;;;47.93;23.57;;;1.60;99.90;;;;;;8367067;28;20201;-79
2022/11/28 05:06:45;;;;;;;54.60;24.27;;;1.60;99.90;;;;;;8362990;28;20531;-80
2022/11/28 05:10:46;;;;;;;49.47;24.50;;;1.60;99.90;;;;;;8366225;28;20193;-79
2022/11/28 05:14:47;;;;;;;44.63;22.10;;;1.50;99.90;;;;;;8371700;28;20201;-79
2022/11/28 05:18:48;;;;;;;48.03;22.50;;;1.50;99.90;;;;;;8366894;28;20233;-80
2022/11/28 05:22:49;;;;;;;48.23;23.10;;;1.40;99.90;;;;;;8370739;28;20201;-79
2022/11/28 05:26:50;;;;;;;46.73;22.20;;;1.30;99.90;;;;;;8368421;28;20181;-78
2022/11/28 05:30:57;;;;;;;45.67;22.60;;;1.30;99.90;;;;;;8368833;28;20200;-79
2022/11/28 05:34:58;;;;;;;45.63;22.10;;;1.20;99.90;;;;;;8370785;28;20186;-79
2022/11/28 05:38:59;;;;;;;48.93;23.93;;;1.20;99.90;;;;;;8371691;28;20209;-79
2022/11/28 05:43:00;;;;;;;46.57;22.80;;;1.20;99.90;;;;;;8367503;28;20295;-79
2022/11/28 05:47:01;;;;;;;49.17;23.20;;;1.10;99.90;;;;;;8354734;28;20205;-79
2022/11/28 05:51:04;;;;;;;48.53;22.00;;;1.10;99.90;;;;;;8374199;28;20189;-79
2022/11/28 05:55:05;;;;;;;50.87;23.13;;;1.10;99.90;;;;;;8372919;28;20284;-79
2022/11/28 05:59:06;;;;;;;46.53;22.47;;;1.10;99.90;;;;;;8366451;28;20206;-79
2022/11/28 06:03:07;;;;;;;41.37;21.67;;;1.00;99.90;;;;;;8371740;28;20181;-79
2022/11/28 06:07:07;;;;;;;42.00;20.30;;;1.00;99.90;;;;;;8371310;28;20686;-79
2022/11/28 06:11:08;;;;;;;45.30;20.23;;;0.90;99.90;;;;;;8365795;28;20235;-79
2022/11/28 06:15:10;;;;;;;37.60;19.50;;;0.90;99.90;;;;;;8368095;28;20181;-79
2022/11/28 06:19:11;;;;;;;39.67;22.83;;;0.90;99.90;;;;;;8369670;28;20211;-79
2022/11/28 06:23:12;;;;;;;38.63;20.30;;;0.90;99.90;;;;;;8366428;28;20543;-79
2022/11/28 06:27:13;;;;;;;37.53;19.37;;;0.90;99.90;;;;;;8363203;28;20244;-79
2022/11/28 06:31:20;;;;;;;30.90;18.00;;;0.90;99.90;;;;;;8373012;28;20206;-80
2022/11/28 06:35:21;;;;;;;37.00;19.10;;;1.00;99.90;;;;;;8373275;28;20408;-79
2022/11/28 06:39:22;;;;;;;34.87;18.93;;;1.10;99.90;;;;;;8363717;28;20205;-79
2022/11/28 06:43:23;;;;;;;33.20;18.37;;;1.10;99.90;;;;;;8368072;28;20178;-79
2022/11/28 06:47:25;;;;;;;42.57;22.57;;;1.10;99.90;;;;;;8365805;28;20186;-79
2022/11/28 06:51:25;;;;;;;38.83;22.07;;;1.20;99.90;;;;;;8366975;28;20281;-79
2022/11/28 06:55:28;;;;;;;37.40;20.67;;;1.20;99.90;;;;;;8383247;28;20181;-79
2022/11/28 06:59:29;;;;;;;44.53;20.53;;;1.20;99.90;;;;;;8379764;28;20220;-79
2022/11/28 07:03:30;;;;;;;42.53;20.40;;;1.20;99.90;;;;;;8373892;28;20203;-79
2022/11/28 07:07:31;;;;;;;45.23;23.67;;;1.30;99.90;;;;;;8369900;28;20182;-78
2022/11/28 07:11:32;;;;;;;46.23;22.60;;;1.30;99.90;;;;;;8379186;28;20197;-78
2022/11/28 07:15:32;;;;;;;45.97;21.83;;;1.40;99.90;;;;;;8381147;28;20285;-79
2022/11/28 07:19:33;;;;;;;43.43;23.50;;;1.40;99.90;;;;;;8378564;28;20237;-79
2022/11/28 07:23:34;;;;;;;41.93;23.47;;;1.50;99.90;;;;;;8373252;28;20182;-79
2022/11/28 07:27:35;;;;;;;36.10;20.67;;;1.60;99.90;;;;;;8372818;28;20264;-79
2022/11/28 07:31:36;;;;;;;44.00;22.03;;;1.60;99.90;;;;;;8372461;28;20711;-79
2022/11/28 07:35:37;;;;;;;40.70;21.67;;;1.70;99.90;;;;;;8373841;28;20194;-79
2022/11/28 07:39:38;;;;;;;46.60;25.17;;;1.80;99.90;;;;;;8373935;28;20250;-77
2022/11/28 07:43:40;;;;;;;64.30;40.80;;;1.80;99.90;;;;;;8369261;28;20182;-79
2022/11/28 07:47:40;;;;;;;50.03;31.73;;;1.90;99.90;;;;;;8371172;28;20200;-79
2022/11/28 07:51:41;;;;;;;76.13;31.47;;;1.90;99.90;;;;;;8370893;28;20197;-79
2022/11/28 07:55:42;;;;;;;43.73;24.80;;;2.00;99.90;;;;;;8369559;28;20204;-79
2022/11/28 07:59:43;;;;;;;46.03;24.67;;;2.10;99.90;;;;;;8370883;28;20220;-78
2022/11/28 08:03:45;;;;;;;47.40;21.37;;;2.10;99.90;;;;;;8370490;28;20246;-79
2022/11/28 08:07:49;;;;;;;58.53;29.80;;;2.20;99.90;;;;;;8373387;28;20184;-79
2022/11/28 08:11:51;;;;;;;39.10;24.67;;;2.20;99.90;;;;;;8369820;28;20190;-79
2022/11/28 08:15:52;;;;;;;43.13;24.37;;;2.30;99.90;;;;;;8368799;28;20189;-79
2022/11/28 08:19:53;;;;;;;41.00;20.57;;;2.40;99.90;;;;;;8370264;28;20233;-79
2022/11/28 08:23:57;;;;;;;36.83;20.37;;;2.50;99.90;;;;;;8372542;28;20249;-79
2022/11/28 08:27:58;;;;;;;38.87;23.87;;;2.60;99.90;;;;;;8386140;28;20186;-80
2022/11/28 08:31:59;;;;;;;46.10;26.53;;;2.70;99.90;;;;;;8372140;28;20299;-79
2022/11/28 08:36:02;;;;;;;38.00;22.00;;;2.80;99.90;;;;;;8368209;28;20181;-79
2022/11/28 08:40:03;;;;;;;32.83;18.17;;;2.90;99.90;;;;;;8366544;28;20206;-79
2022/11/28 08:44:04;;;;;;;33.03;18.00;;;2.90;99.90;;;;;;8377371;28;20182;-79
2022/11/28 08:48:05;;;;;;;36.23;20.47;;;3.00;99.90;;;;;;8368068;28;20186;-79
2022/11/28 08:52:06;;;;;;;32.67;17.93;;;3.10;99.90;;;;;;8373473;28;20177;-79
2022/11/28 08:56:07;;;;;;;29.43;16.10;;;3.30;99.90;;;;;;8373092;28;20591;-78
2022/11/28 09:00:08;;;;;;;27.03;15.57;;;3.30;99.90;;;;;;8369608;28;20244;-79
2022/11/28 09:04:09;;;;;;;22.90;15.47;;;3.30;99.90;;;;;;8368750;28;20185;-79
2022/11/28 09:08:10;;;;;;;22.00;14.10;;;3.40;99.90;;;;;;8365061;28;20247;-79
2022/11/28 09:12:10;;;;;;;26.17;16.70;;;3.40;99.90;;;;;;8374969;28;20182;-79
2022/11/28 09:16:12;;;;;;;23.90;15.63;;;3.50;99.90;;;;;;8366248;28;20244;-79
2022/11/28 09:20:15;;;;;;;24.30;15.47;;;3.50;99.90;;;;;;8368206;28;20200;-79
2022/11/28 09:24:16;;;;;;;24.67;14.33;;;3.50;99.90;;;;;;8365543;28;20173;-79
2022/11/28 09:28:17;;;;;;;23.13;14.90;;;3.50;99.90;;;;;;8370489;28;20238;-79
2022/11/28 09:32:17;;;;;;;24.73;15.63;;;3.50;99.90;;;;;;8377093;28;20193;-80
2022/11/28 09:36:21;;;;;;;28.97;16.80;;;3.50;99.90;;;;;;8371814;28;20182;-80
2022/11/28 09:40:41;;;;;;;25.70;16.73;;;3.60;99.90;;;;;;8364457;28;20209;-79
2022/11/28 09:44:51;;;;;;;28.60;16.37;;;3.70;99.90;;;;;;8363589;28;20229;-79
2022/11/28 09:48:56;;;;;;;25.57;15.07;;;3.80;99.90;;;;;;8370408;28;20216;-79
2022/11/28 09:52:57;;;;;;;27.60;16.70;;;3.90;99.90;;;;;;8365375;28;20316;-79
2022/11/28 09:57:02;;;;;;;30.70;18.07;;;3.90;99.90;;;;;;8373289;28;20287;-79
2022/11/28 10:01:21;;;;;;;36.00;23.27;;;4.00;99.90;;;;;;8364017;28;20256;-79
2022/11/28 10:05:57;;;;;;;28.87;18.20;;;4.10;99.90;;;;;;8372497;28;20188;-79
2022/11/28 10:10:13;;;;;;;26.70;16.47;;;4.20;99.90;;;;;;8372059;28;20247;-79
2022/11/28 10:14:42;;;;;;;24.50;15.57;;;4.30;99.90;;;;;;8371663;28;20185;-78
2022/11/28 10:18:51;;;;;;;23.13;14.53;;;4.40;99.90;;;;;;8362402;28;20207;-79
2022/11/28 10:22:55;;;;;;;23.27;15.23;;;4.50;99.90;;;;;;8368865;28;20269;-79
2022/11/28 10:27:00;;;;;;;24.07;15.03;;;4.60;99.90;;;;;;8364622;28;20212;-79
2022/11/28 10:31:07;;;;;;;20.97;13.87;;;4.60;99.90;;;;;;8367174;28;20208;-79
2022/11/28 10:35:26;;;;;;;20.50;14.10;;;4.70;99.90;;;;;;8375409;28;20177;-79
2022/11/28 10:39:27;;;;;;;24.67;14.53;;;4.70;99.90;;;;;;8367591;28;20224;-80
2022/11/28 10:43:40;;;;;;;21.67;13.90;;;4.80;99.90;;;;;;8366139;28;20182;-79
2022/11/28 10:48:18;;;;;;;21.13;14.40;;;4.90;99.90;;;;;;8368359;28;20193;-79
2022/11/28 10:52:33;;;;;;;22.83;13.83;;;5.10;99.90;;;;;;8368126;28;20184;-80
2022/11/28 10:56:49;;;;;;;28.33;14.53;;;5.20;99.90;;;;;;8364111;28;20224;-79
2022/11/28 11:00:55;;;;;;;21.03;13.60;;;5.30;99.90;;;;;;8374808;28;20271;-78
2022/11/28 11:04:56;;;;;;;19.97;13.43;;;5.40;99.90;;;;;;8372187;28;20609;-78
2022/11/28 11:08:56;;;;;;;25.30;15.13;;;5.60;99.90;;;;;;8366086;28;20194;-78
2022/11/28 11:12:58;;;;;;;22.73;15.17;;;5.60;99.90;;;;;;8370177;28;20435;-78
2022/11/28 11:16:59;;;;;;;23.10;15.13;;;5.50;99.90;;;;;;8371989;28;20186;-78
2022/11/28 11:21:38;;;;;;;26.93;14.70;;;5.40;99.90;;;;;;8366692;28;20530;-78
2022/11/28 11:25:57;;;;;;;25.67;15.53;;;5.30;99.90;;;;;;8356914;28;20336;-78
2022/11/28 11:29:58;;;;;;;26.60;15.10;;;5.30;99.90;;;;;;8338944;28;20224;-78
2022/11/28 11:34:13;;;;;;;24.47;16.03;;;5.40;99.90;;;;;;8360965;28;20301;-77
2022/11/28 11:38:13;;;;;;;22.60;15.20;;;5.40;99.90;;;;;;8371231;28;20214;-78
2022/11/28 11:42:24;;;;;;;23.40;14.80;;;5.50;99.90;;;;;;8372646;28;20182;-78
2022/11/28 11:46:24;;;;;;;23.43;14.17;;;5.60;99.90;;;;;;8372677;28;20265;-79
2022/11/28 11:50:29;;;;;;;19.83;13.43;;;5.70;99.90;;;;;;8373439;28;20190;-79
2022/11/28 11:54:30;;;;;;;25.60;15.03;;;5.80;99.90;;;;;;8379159;28;20189;-77
2022/11/28 11:58:52;;;;;;;23.63;14.70;;;5.80;99.90;;;;;;8358165;28;20213;-78
2022/11/28 12:02:57;;;;;;;25.60;16.00;;;5.90;99.90;;;;;;8378092;28;20176;-79
2022/11/28 12:07:01;;;;;;;37.00;19.17;;;5.90;99.90;;;;;;8383107;28;20177;-79
2022/11/28 12:11:23;;;;;;;73.50;32.93;;;5.90;99.90;;;;;;8373032;28;20180;-78
2022/11/28 12:15:40;;;;;;;23.50;16.63;;;5.90;99.90;;;;;;8377415;28;20182;-78
2022/11/28 12:19:50;;;;;;;40.37;17.13;;;6.00;99.90;;;;;;8371761;28;20257;-78
2022/11/28 12:24:06;;;;;;;32.90;16.80;;;6.00;99.90;;;;;;8376666;28;20173;-78
2022/11/28 12:28:17;;;;;;;33.93;17.33;;;6.00;99.90;;;;;;8371922;28;20165;-78
2022/11/28 12:32:47;;;;;;;24.20;15.87;;;6.10;99.90;;;;;;8366375;28;20236;-77
2022/11/28 12:37:23;;;;;;;23.57;14.93;;;6.00;97.80;;;;;;8366055;28;20204;-79
2022/11/28 12:41:47;;;;;;;22.90;13.87;;;6.00;99.90;;;;;;8366806;28;20262;-79
2022/11/28 12:46:10;;;;;;;27.30;14.23;;;6.00;86.70;;;;;;8373896;28;20189;-78
2022/11/28 12:50:38;;;;;;;25.13;14.80;;;6.00;99.90;;;;;;8379175;28;20752;-79
2022/11/28 12:54:59;;;;;;;39.30;20.00;;;6.10;99.90;;;;;;8375696;28;20253;-79
2022/11/28 12:59:24;;;;;;;31.33;17.10;;;6.00;99.90;;;;;;8370956;28;20249;-79
2022/11/28 13:03:54;;;;;;;19.63;13.53;;;6.10;99.90;;;;;;8374659;28;20193;-79
2022/11/28 13:08:55;;;;;;;24.17;14.10;;;6.10;99.90;;;;;;8375684;28;20189;-79
2022/11/28 13:13:27;;;;;;;19.77;12.87;;;6.10;99.90;;;;;;8367162;28;20196;-78
2022/11/28 13:17:42;;;;;;;19.93;14.23;;;6.20;99.90;;;;;;8378881;28;20184;-78
2022/11/28 13:21:56;;;;;;;18.90;12.80;;;6.20;98.20;;;;;;8363136;28;20240;-78
2022/11/28 13:26:30;;;;;;;20.10;14.30;;;6.20;99.30;;;;;;8373802;28;20188;-78
2022/11/28 13:30:40;;;;;;;23.63;15.77;;;6.20;99.90;;;;;;8368850;28;20204;-78
2022/11/28 13:34:41;;;;;;;22.70;14.00;;;6.10;99.90;;;;;;8380191;28;20188;-78
2022/11/28 13:38:57;;;;;;;23.43;14.43;;;5.90;99.90;;;;;;8371311;28;20205;-78
2022/11/28 13:43:12;;;;;;;27.70;16.27;;;5.70;99.90;;;;;;8374407;28;20182;-79
2022/11/28 13:47:20;;;;;;;26.37;16.73;;;5.50;99.90;;;;;;8371801;28;20186;-77
2022/11/28 13:51:25;;;;;;;24.53;14.80;;;5.30;99.90;;;;;;8366809;28;20212;-78
2022/11/28 13:55:39;;;;;;;27.07;16.43;;;5.10;99.90;;;;;;8365890;28;20289;-79
2022/11/28 14:00:00;;;;;;;30.53;18.63;;;4.90;99.90;;;;;;8366237;28;20521;-78
2022/11/28 14:04:07;;;;;;;27.53;17.70;;;4.80;99.90;;;;;;8362848;28;20202;-79
2022/11/28 14:08:43;;;;;;;24.73;15.97;;;4.60;99.90;;;;;;8369242;28;20192;-78
2022/11/28 14:13:21;;;;;;;27.50;17.50;;;4.40;99.90;;;;;;8370898;28;20197;-78
2022/11/28 14:17:25;;;;;;;43.13;29.50;;;4.20;99.90;;;;;;8369449;28;20177;-78
2022/11/28 14:21:35;;;;;;;38.50;26.13;;;4.10;99.90;;;;;;8369935;28;20300;-78
2022/11/28 14:25:43;;;;;;;35.13;23.53;;;3.90;99.90;;;;;;8373329;28;20189;-78
2022/11/28 14:29:48;;;;;;;109.73;47.37;;;3.80;99.90;;;;;;8371290;28;20189;-79
2022/11/28 14:33:59;;;;;;;44.77;27.70;;;3.70;99.90;;;;;;8367570;28;20268;-78
2022/11/28 14:38:01;;;;;;;33.33;21.37;;;3.50;99.90;;;;;;8366570;28;20186;-78
2022/11/28 14:42:05;;;;;;;82.60;36.77;;;3.30;99.90;;;;;;8367546;28;20213;-78
2022/11/28 14:46:18;;;;;;;85.23;37.73;;;3.10;99.90;;;;;;8371480;28;20181;-78
2022/11/28 14:50:19;;;;;;;66.90;31.67;;;3.00;99.90;;;;;;8375140;28;20186;-78
2022/11/28 14:54:30;;;;;;;54.50;28.00;;;2.80;99.90;;;;;;8366678;28;20198;-78
2022/11/28 14:58:32;;;;;;;58.00;29.17;;;2.70;99.90;;;;;;8373185;28;20236;-78
2022/11/28 15:02:42;;;;;;;118.63;51.83;;;2.60;99.90;;;;;;8363470;28;20182;-79
2022/11/28 15:06:43;;;;;;;158.50;67.17;;;2.50;99.90;;;;;;8376163;28;20183;-78
2022/11/28 15:11:15;;;;;;;99.73;47.10;;;2.40;99.90;;;;;;8361911;28;20216;-78
2022/11/28 15:15:16;;;;;;;48.00;25.80;;;2.20;99.90;;;;;;8372248;28;20177;-80
2022/11/28 15:19:36;;;;;;;31.63;19.37;;;2.10;99.90;;;;;;8370246;28;20204;-80
2022/11/28 15:23:37;;;;;;;24.30;14.60;;;2.00;99.90;;;;;;8376211;28;20185;-80
2022/11/28 15:27:38;;;;;;;26.23;14.60;;;1.90;99.90;;;;;;8371383;28;20208;-79
2022/11/28 15:31:42;;;;;;;24.17;14.63;;;1.80;99.90;;;;;;8377843;28;20216;-79
2022/11/28 15:35:57;;;;;;;20.20;12.43;;;1.80;99.90;;;;;;8367655;28;20474;-79
2022/11/28 15:40:00;;;;;;;21.20;12.20;;;1.80;99.90;;;;;;8363766;28;20232;-78
2022/11/28 15:44:02;;;;;;;21.57;13.93;;;1.70;99.90;;;;;;8374864;28;20184;-79
2022/11/28 15:48:06;;;;;;;24.17;14.63;;;1.70;99.90;;;;;;8374759;28;20177;-78
2022/11/28 15:52:14;;;;;;;30.47;17.50;;;1.70;99.90;;;;;;8369425;28;20281;-79
2022/11/28 15:56:15;;;;;;;25.47;15.50;;;1.70;99.90;;;;;;8368574;28;20178;-79
2022/11/28 16:00:18;;;;;;;27.87;17.10;;;1.70;99.90;;;;;;8371153;28;20213;-79
2022/11/28 16:04:20;;;;;;;30.93;19.57;;;1.80;99.90;;;;;;8377593;28;20243;-79
2022/11/28 16:08:31;;;;;;;38.10;22.20;;;1.80;99.90;;;;;;8374520;28;20187;-79
2022/11/28 16:12:32;;;;;;;55.67;31.23;;;1.80;99.90;;;;;;8371137;28;20174;-79
2022/11/28 16:16:35;;;;;;;49.90;26.57;;;1.80;99.90;;;;;;8391327;28;20195;-78
2022/11/28 16:20:36;;;;;;;51.97;30.53;;;1.90;99.90;;;;;;8367007;28;20280;-79
2022/11/28 16:24:54;;;;;;;48.30;27.63;;;1.80;99.90;;;;;;8370935;28;20185;-79
2022/11/28 16:29:07;;;;;;;36.83;21.03;;;1.90;99.90;;;;;;8367915;28;20193;-78
2022/11/28 16:33:34;;;;;;;34.63;20.70;;;1.80;99.90;;;;;;8370626;28;20181;-79
2022/11/28 16:37:35;;;;;;;31.77;20.63;;;1.90;99.90;;;;;;8375231;28;20185;-78
2022/11/28 16:41:40;;;;;;;36.43;22.57;;;1.80;99.90;;;;;;8370229;28;20227;-79
2022/11/28 16:45:40;;;;;;;37.00;22.47;;;1.90;99.90;;;;;;8375562;28;20181;-79
2022/11/28 16:50:02;;;;;;;53.00;31.53;;;1.90;99.90;;;;;;8371204;28;20192;-78
2022/11/28 16:54:22;;;;;;;212.93;105.47;;;2.00;99.90;;;;;;8374654;28;20227;-79
2022/11/28 16:58:23;;;;;;;185.93;90.50;;;2.10;99.90;;;;;;8372827;28;20244;-79
2022/11/28 17:02:25;;;;;;;65.83;34.13;;;2.20;99.90;;;;;;8371102;28;20190;-79
2022/11/28 17:06:33;;;;;;;46.87;23.83;;;2.20;99.90;;;;;;8376191;28;20186;-79
2022/11/28 17:10:34;;;;;;;46.27;23.83;;;2.30;99.90;;;;;;8365715;28;20200;-78
2022/11/28 17:14:36;;;;;;;47.07;22.20;;;2.30;99.90;;;;;;8371102;28;20207;-79
2022/11/28 17:18:37;;;;;;;37.20;20.83;;;2.40;99.90;;;;;;8367691;28;20186;-79
2022/11/28 17:22:44;;;;;;;40.37;22.50;;;2.40;99.90;;;;;;8365328;28;20177;-79
2022/11/28 17:26:45;;;;;;;36.90;20.70;;;2.40;99.90;;;;;;8372992;28;20180;-79
2022/11/28 17:30:46;;;;;;;29.17;18.50;;;2.50;99.90;;;;;;8369270;28;20205;-79
2022/11/28 17:34:47;;;;;;;29.67;18.57;;;2.40;99.90;;;;;;8377468;28;20193;-79
2022/11/28 17:38:48;;;;;;;40.30;21.20;;;2.40;99.90;;;;;;8368633;28;20209;-79
2022/11/28 17:42:49;;;;;;;37.67;21.50;;;2.40;99.90;;;;;;8371824;28;20353;-79
2022/11/28 17:46:52;;;;;;;39.30;21.60;;;2.40;99.90;;;;;;8368038;28;20201;-79
2022/11/28 17:50:52;;;;;;;34.47;19.37;;;2.40;99.90;;;;;;8367937;28;20228;-79
2022/11/28 17:54:55;;;;;;;30.03;17.57;;;2.40;99.90;;;;;;8367278;28;20185;-79
2022/11/28 17:58:59;;;;;;;29.90;17.70;;;2.30;99.90;;;;;;8367334;28;20218;-79
2022/11/28 18:03:00;;;;;;;31.43;17.07;;;2.30;99.90;;;;;;8367362;28;20207;-79
2022/11/28 18:07:01;;;;;;;29.73;17.30;;;2.20;99.90;;;;;;8366174;28;20213;-79
2022/11/28 18:11:08;;;;;;;42.90;25.53;;;2.20;99.90;;;;;;8367338;28;20298;-79
2022/11/28 18:15:09;;;;;;;112.27;56.60;;;2.20;99.90;;;;;;8375191;28;20230;-79
2022/11/28 18:19:10;;;;;;;126.03;57.63;;;2.20;99.90;;;;;;8367209;28;20209;-79
2022/11/28 18:23:11;;;;;;;131.87;63.77;;;2.10;99.90;;;;;;8366762;28;20181;-79
2022/11/28 18:27:12;;;;;;;140.17;68.03;;;2.10;99.90;;;;;;8369629;28;20187;-79
2022/11/28 18:31:25;;;;;;;169.20;76.57;;;2.10;99.90;;;;;;8369573;28;20248;-79
2022/11/28 18:35:26;;;;;;;144.27;67.63;;;2.10;99.90;;;;;;8363781;28;20193;-79
2022/11/28 18:39:27;;;;;;;103.23;49.10;;;2.00;99.90;;;;;;8363894;28;20221;-79
2022/11/28 18:43:31;;;;;;;60.73;32.13;;;1.90;99.90;;;;;;8373790;28;20217;-79
2022/11/28 18:47:34;;;;;;;37.93;22.87;;;1.70;99.90;;;;;;8373140;28;20205;-79
2022/11/28 18:51:35;;;;;;;56.13;31.27;;;1.70;99.90;;;;;;8376377;28;20288;-79
2022/11/28 18:55:36;;;;;;;68.43;35.80;;;1.60;99.90;;;;;;8373430;28;20203;-79
2022/11/28 18:59:37;;;;;;;74.70;38.83;;;1.60;99.90;;;;;;8372442;28;20243;-79
2022/11/28 19:03:39;;;;;;;88.33;44.30;;;1.50;99.90;;;;;;8373271;28;20185;-79
2022/11/28 19:07:40;;;;;;;67.73;36.83;;;1.50;99.90;;;;;;8372505;28;20285;-81
2022/11/28 19:11:42;;;;;;;41.67;24.43;;;1.40;99.90;;;;;;8380780;28;20239;-79
2022/11/28 19:15:43;;;;;;;31.80;20.40;;;1.40;99.90;;;;;;8370735;28;20183;-78
2022/11/28 19:19:43;;;;;;;38.60;22.70;;;1.30;99.90;;;;;;8372033;28;20235;-79
2022/11/28 19:23:49;;;;;;;36.03;21.90;;;1.30;99.90;;;;;;8376196;28;20235;-79
2022/11/28 19:27:50;;;;;;;28.03;17.73;;;1.30;99.90;;;;;;8360723;28;20182;-79
2022/11/28 19:31:51;;;;;;;24.93;16.27;;;1.20;99.90;;;;;;8374498;28;20200;-79
2022/11/28 19:35:51;;;;;;;26.90;15.30;;;1.10;99.90;;;;;;8371870;28;20191;-79
2022/11/28 19:39:52;;;;;;;26.27;16.40;;;1.00;99.90;;;;;;8368876;28;20198;-78
2022/11/28 19:43:53;;;;;;;24.97;15.93;;;1.00;99.90;;;;;;8376945;28;20177;-79
2022/11/28 19:47:54;;;;;;;24.97;15.27;;;1.00;99.90;;;;;;8377226;28;20185;-79
2022/11/28 19:51:55;;;;;;;28.03;17.03;;;1.00;99.90;;;;;;8369713;28;20206;-79
2022/11/28 19:56:06;;;;;;;29.13;17.27;;;0.90;99.90;;;;;;8378868;28;20185;-79
2022/11/28 20:00:07;;;;;;;50.10;27.50;;;0.90;99.90;;;;;;8368218;28;20209;-79
2022/11/28 20:04:08;;;;;;;37.90;21.30;;;0.90;99.90;;;;;;8370371;28;20228;-79
2022/11/28 20:08:09;;;;;;;29.17;18.10;;;0.90;99.90;;;;;;8373392;28;20178;-79
2022/11/28 20:12:10;;;;;;;27.50;16.57;;;0.80;99.90;;;;;;8369780;28;20190;-79
2022/11/28 20:16:12;;;;;;;29.27;17.67;;;0.80;99.90;;;;;;8369164;28;20189;-79
2022/11/28 20:20:13;;;;;;;36.20;22.90;;;0.80;99.90;;;;;;8377354;28;20484;-79
2022/11/28 20:24:15;;;;;;;55.80;31.20;;;0.80;99.90;;;;;;8371653;28;20213;-78
2022/11/28 20:28:15;;;;;;;47.00;26.33;;;0.90;99.90;;;;;;8367970;28;20263;-78
2022/11/28 20:32:17;;;;;;;33.23;21.03;;;0.90;99.90;;;;;;8368677;28;20201;-78
2022/11/28 20:36:20;;;;;;;32.33;18.67;;;0.90;99.90;;;;;;8373276;28;20312;-78
2022/11/28 20:40:21;;;;;;;26.23;16.30;;;0.90;99.90;;;;;;8378369;28;20206;-80
2022/11/28 20:44:22;;;;;;;29.43;17.77;;;0.90;99.90;;;;;;8375298;28;20181;-81
2022/11/28 20:48:23;;;;;;;32.13;19.00;;;0.90;99.90;;;;;;8368752;28;20182;-81
2022/11/28 20:52:24;;;;;;;33.00;20.53;;;1.00;99.90;;;;;;8377073;28;20189;-78
2022/11/28 20:56:30;;;;;;;33.20;18.07;;;1.00;99.90;;;;;;8372134;28;20268;-78
2022/11/28 21:00:31;;;;;;;34.67;19.30;;;1.00;99.90;;;;;;8372604;28;20197;-78
2022/11/28 21:04:32;;;;;;;29.43;18.37;;;1.00;99.90;;;;;;8364822;28;20174;-78
2022/11/28 21:08:33;;;;;;;36.50;21.10;;;1.00;99.90;;;;;;8367302;28;20225;-79